• Join FlightAware (Why Join?)
  • Login
  • US Flag 
10:14AM EDT


 

Airport Tracker/Info


-or-


 

Live Flight TrackerFlight Track Log ✈ N7304T ✈ 03-Dec-2013 ✈ KMTN - KCDW

Flight Track Log - Related Links

Times and Time Zones

All times are in EST time to prevent confusion due to time zone crossing. See the N7304T flight status page for this flight to view local times or setup timezone preferences in your user account.

Time Position Orientation Groundspeed Altitude Reporting Facility
EST Latitude Longitude Course Direction KTS MPH feet Rate Location/Type
02:03PM 39.1833 -76.1500 49° Northeast 142 163 5,600  Level Potomac TRACON
02:04PM 39.2167 -76.1000 49° Northeast 154 177 5,600 -60 Level Potomac TRACON
02:05PM 39.2333 -76.0500 67° East 159 183 5,500  Descending Potomac TRACON
02:06PM 39.2667 -76.0167 38° Northeast 160 184 5,600  Climbing Potomac TRACON
02:08PM 39.3167 -75.9500 46° Northeast 160 184 5,600 -60 Level Philadelphia TRACON
02:09PM 39.3500 -75.9167 38° Northeast 162 186 5,500 -60 Descending Philadelphia TRACON
02:10PM 39.3833 -75.8667 49° Northeast 160 184 5,500  Level Philadelphia TRACON
02:11PM 39.4167 -75.8333 38° Northeast 160 184 5,500  Level Philadelphia TRACON
02:12PM 39.4500 -75.7833 49° Northeast 160 184 5,500  Level Philadelphia TRACON
02:13PM 39.4667 -75.7500 57° Northeast 162 186 5,600  Climbing Philadelphia TRACON
02:14PM 39.5000 -75.7000 49° Northeast 158 182 5,500  Descending Philadelphia TRACON
02:15PM 39.5500 -75.7000 360° North 150 173 5,600  Climbing Philadelphia TRACON
02:16PM 39.5833 -75.6833 21° North 149 171 5,600  Level Philadelphia TRACON
02:17PM 39.6333 -75.6833 360° North 152 175 5,600  Level Philadelphia TRACON
02:18PM 39.6833 -75.6667 14° North 153 176 5,600  Level Philadelphia TRACON
02:19PM 39.7167 -75.6667 360° North 149 171 5,600  Level Philadelphia TRACON
02:20PM 39.7500 -75.6667 360° North 147 169 5,600  Level Philadelphia TRACON
02:21PM 39.8000 -75.6667 360° North 147 169 5,700  Climbing Philadelphia TRACON
02:22PM 39.8333 -75.6667 360° North 147 169 5,600 -60 Descending Philadelphia TRACON
02:23PM 39.8667 -75.6667 360° North 149 171 5,600 -60 Level Philadelphia TRACON
02:24PM 39.9167 -75.6667 360° North 150 173 5,500 -60 Descending Philadelphia TRACON
02:25PM 39.9667 -75.6500 14° North 154 177 5,500  Level Philadelphia TRACON
02:26PM 39.9833 -75.6167 57° Northeast 162 186 5,500  Level Philadelphia TRACON
02:27PM 40.0167 -75.5667 49° Northeast 163 188 5,500  Level Philadelphia TRACON
02:28PM 40.0333 -75.5167 66° East 164 189 5,500 -60 Level Philadelphia TRACON
02:29PM 40.0500 -75.4667 66° East 157 181 5,400  Descending Philadelphia TRACON
02:30PM 40.0833 -75.4167 49° Northeast 160 184 5,500  Climbing Philadelphia TRACON
02:31PM 40.1167 -75.3833 37° Northeast 158 182 5,500  Level Philadelphia TRACON
02:32PM 40.1500 -75.3500 37° Northeast 164 189 5,500  Level Philadelphia TRACON
02:33PM 40.1667 -75.3000 66° East 161 185 5,500 -60 Level Philadelphia TRACON
02:34PM 40.2000 -75.2500 49° Northeast 166 191 5,400  Descending Philadelphia TRACON
02:36PM 40.2500 -75.1667 52° Northeast 165 190 5,500  Climbing New York TRACON
02:37PM 40.2833 -75.1167 49° Northeast 161 185 5,500  Level New York TRACON
02:38PM 40.3167 -75.0833 37° Northeast 165 190 5,600  Climbing New York TRACON
02:39PM 40.3333 -75.0333 66° East 161 185 5,600  Level New York TRACON
02:40PM 40.3667 -74.9833 49° Northeast 165 190 5,600 -60 Level New York TRACON
02:41PM 40.4000 -74.9500 37° Northeast 169 194 5,500 -60 Descending New York TRACON
02:42PM 40.4333 -74.9167 37° Northeast 155 178 5,500  Level New York TRACON
02:43PM 40.4667 -74.8667 49° Northeast 159 183 5,500  Level New York TRACON
02:44PM 40.5000 -74.8333 37° Northeast 161 185 5,500  Level New York TRACON
02:45PM 40.5167 -74.8000 57° Northeast 158 182 5,500 -300 Level New York TRACON
02:46PM 40.5667 -74.7500 37° Northeast 170 196 4,900 -480 Descending New York TRACON
02:47PM 40.5833 -74.7000 66° East 165 190 4,500 -420 Descending New York TRACON
02:48PM 40.6167 -74.6667 37° Northeast 163 188 4,200 -480 Descending New York TRACON
02:49PM 40.6333 -74.6167 66° East 163 188 3,700 -360 Descending New York TRACON
02:50PM 40.6667 -74.5667 49° Northeast 154 177 3,500 -60 Descending New York TRACON
02:51PM 40.6833 -74.5167 66° East 151 174 3,600 -240 Climbing New York TRACON
02:52PM 40.7167 -74.4833 37° Northeast 144 166 3,100 -300 Descending New York TRACON
02:53PM 40.7500 -74.4500 37° Northeast 147 169 3,100 -120 Level New York TRACON
02:54PM 40.7667 -74.4000 66° East 140 161 2,900 -360 Descending New York TRACON
02:55PM 40.8000 -74.3667 37° Northeast 142 163 2,400 -540 Descending New York TRACON
02:56PM 40.8333 -74.3333 37° Northeast 144 166 1,900 -600 Descending New York TRACON
02:57PM 40.8667 -74.3167 21° North 119 137 1,300 -360 Descending New York TRACON
02:58PM 40.8833 -74.2833 57° Northeast 104 120 1,200  Descending New York TRACON
02:59PM 40.9167 -74.2833 360° North 105 121 1,300 60 Climbing New York TRACON
03:01PM 40.8752 -74.2814 166° South  Level Estimated
03:08PM 40.8752 -74.2814 53° Northeast  Level Estimated
03:09PM 40.8752 -74.2814 53° Northeast  Level Estimated
03:10PM 40.8752 -74.2814 53° Northeast  Level Estimated
03:11PM 40.8752 -74.2814 53° Northeast  Level Estimated